createdAt,value
2023-04-22T00:00:09.216Z,9.09
2023-04-22T00:02:38.953Z,9.17
2023-04-22T00:05:09.466Z,9.18
2023-04-22T00:07:39.689Z,9.15
2023-04-22T00:10:10.057Z,9.05
2023-04-22T00:12:39.074Z,8.98
2023-04-22T00:15:09.214Z,9.10
2023-04-22T00:17:38.522Z,9.02
2023-04-22T00:20:10.844Z,9.06
2023-04-22T00:22:41.108Z,8.80
2023-04-22T00:25:10.540Z,9.21
2023-04-22T00:27:39.377Z,8.98
2023-04-22T00:30:09.598Z,8.76
2023-04-22T00:32:39.172Z,8.82
2023-04-22T00:35:09.060Z,8.84
2023-04-22T00:37:37.956Z,8.90
2023-04-22T00:40:10.182Z,8.92
2023-04-22T00:42:39.064Z,8.98
2023-04-22T00:45:12.922Z,9.01
2023-04-22T00:47:43.014Z,8.99
2023-04-22T00:50:12.425Z,8.89
2023-04-22T00:52:41.374Z,8.67
2023-04-22T00:55:12.242Z,8.57
2023-04-22T00:57:41.811Z,8.45
2023-04-22T01:00:11.744Z,8.41
2023-04-22T01:02:40.995Z,8.18
2023-04-22T01:05:10.846Z,8.18
2023-04-22T01:07:39.806Z,8.10
2023-04-22T01:10:09.608Z,8.11
2023-04-22T01:12:39.884Z,7.89
2023-04-22T01:15:10.074Z,8.06
2023-04-22T01:17:39.095Z,8.06
2023-04-22T01:20:10.570Z,8.20
2023-04-22T01:22:43.676Z,8.18
2023-04-22T01:25:14.133Z,8.25
2023-04-22T01:27:44.242Z,8.24
2023-04-22T01:30:13.865Z,8.22
2023-04-22T01:32:43.328Z,8.12
2023-04-22T01:35:12.681Z,8.09
2023-04-22T01:37:41.619Z,7.99
2023-04-22T01:40:14.940Z,7.97
2023-04-22T01:42:44.266Z,7.77
2023-04-22T01:45:15.207Z,7.66
2023-04-22T01:47:44.211Z,7.67
2023-04-22T01:50:13.140Z,7.55
2023-04-22T01:52:42.613Z,7.45
2023-04-22T01:55:13.330Z,7.39
2023-04-22T01:57:42.258Z,7.43
2023-04-22T02:00:12.161Z,7.37
2023-04-22T02:02:49.842Z,7.54
2023-04-22T02:05:20.003Z,7.73
2023-04-22T02:07:52.521Z,7.64
2023-04-22T02:10:23.034Z,7.47
2023-04-22T02:12:51.990Z,7.49
2023-04-22T02:15:21.079Z,7.33
2023-04-22T02:17:50.642Z,7.32
2023-04-22T02:20:19.657Z,7.31
2023-04-22T02:22:48.806Z,7.37
2023-04-22T02:25:17.984Z,7.28
2023-04-22T02:27:48.207Z,7.38
2023-04-22T02:30:17.739Z,7.54
2023-04-22T02:32:46.674Z,7.38
2023-04-22T02:35:15.609Z,7.35
2023-04-22T02:37:44.495Z,7.38
2023-04-22T02:40:13.786Z,7.43
2023-04-22T02:42:42.638Z,7.17
2023-04-22T02:45:13.119Z,6.92
2023-04-22T02:47:42.439Z,6.68
2023-04-22T02:50:12.409Z,6.78
2023-04-22T02:52:41.240Z,6.65
2023-04-22T02:55:11.058Z,6.67
2023-04-22T02:57:39.997Z,6.92
2023-04-22T03:00:10.485Z,6.90
2023-04-22T03:02:41.130Z,6.92
2023-04-22T03:05:16.030Z,6.93
2023-04-22T03:07:47.526Z,6.95
2023-04-22T03:10:18.203Z,7.03
2023-04-22T03:12:47.688Z,6.90
2023-04-22T03:15:20.459Z,7.03
2023-04-22T03:17:51.772Z,6.68
2023-04-22T03:20:22.794Z,6.10
2023-04-22T03:22:51.767Z,6.18
2023-04-22T03:25:21.447Z,6.30
2023-04-22T03:27:56.578Z,6.29
2023-04-22T03:30:25.780Z,6.58
2023-04-22T03:32:57.347Z,6.43
2023-04-22T03:35:49.928Z,6.25
2023-04-22T03:38:19.450Z,6.47
2023-04-22T03:40:50.114Z,6.54
2023-04-22T03:43:40.618Z,6.65
2023-04-22T03:46:11.511Z,6.68
2023-04-22T03:48:49.633Z,6.60
2023-04-22T03:51:30.227Z,6.59
2023-04-22T03:54:01.075Z,6.53
2023-04-22T03:56:33.846Z,6.52
2023-04-22T03:59:04.179Z,6.44
2023-04-22T04:01:34.668Z,6.65
2023-04-22T04:04:08.397Z,6.72
2023-04-22T04:06:46.631Z,6.76
2023-04-22T04:09:15.487Z,6.84
2023-04-22T04:11:44.349Z,6.96
2023-04-22T04:14:13.395Z,7.02
2023-04-22T04:16:49.580Z,6.90
2023-04-22T04:19:28.317Z,6.76
2023-04-22T04:21:57.689Z,6.96
2023-04-22T04:24:29.548Z,7.20
2023-04-22T04:27:05.552Z,7.48
2023-04-22T04:29:43.153Z,7.32
2023-04-22T04:32:18.364Z,7.52
2023-04-22T04:34:49.143Z,7.55
2023-04-22T04:37:19.905Z,7.31
2023-04-22T04:39:59.907Z,7.09
2023-04-22T04:42:38.552Z,7.39
2023-04-22T04:45:13.119Z,7.58
2023-04-22T04:47:42.322Z,7.89
2023-04-22T04:50:21.226Z,8.12
2023-04-22T04:52:50.107Z,8.15
2023-04-22T04:55:23.903Z,8.22
2023-04-22T04:57:53.122Z,8.26
2023-04-22T05:00:22.259Z,8.55
2023-04-22T05:02:51.211Z,8.61
2023-04-22T05:05:21.705Z,8.73
2023-04-22T05:07:51.775Z,9.07
2023-04-22T05:10:21.666Z,9.23
2023-04-22T05:12:51.294Z,9.30
2023-04-22T05:15:24.680Z,9.10
2023-04-22T05:17:53.668Z,9.40
2023-04-22T05:20:24.085Z,9.68
2023-04-22T05:22:52.922Z,10.16
2023-04-22T05:25:22.020Z,10.41
2023-04-22T05:27:59.060Z,10.56
2023-04-22T05:30:31.830Z,10.33
2023-04-22T05:33:01.320Z,10.65
2023-04-22T05:35:32.021Z,10.80
2023-04-22T05:38:02.016Z,11.18
2023-04-22T05:40:32.399Z,11.38
2023-04-22T05:43:02.078Z,11.39
2023-04-22T05:45:31.741Z,11.35
2023-04-22T05:48:00.932Z,11.60
2023-04-22T05:50:35.425Z,11.43
2023-04-22T05:53:09.498Z,11.37
2023-04-22T05:55:38.800Z,11.95
2023-04-22T05:58:10.091Z,11.59
2023-04-22T06:00:53.619Z,11.06
2023-04-22T06:03:47.893Z,12.03
2023-04-22T06:06:18.613Z,11.37
2023-04-22T06:08:49.465Z,11.95
2023-04-22T06:11:18.363Z,12.24
2023-04-22T06:13:47.283Z,11.42
2023-04-22T06:16:16.894Z,11.44
2023-04-22T06:18:45.757Z,10.85
2023-04-22T06:21:14.647Z,11.56
2023-04-22T06:23:44.905Z,12.24
2023-04-22T06:26:13.980Z,12.25
2023-04-22T06:28:42.844Z,12.22
2023-04-22T06:31:18.171Z,12.09
2023-04-22T06:33:48.379Z,12.17
2023-04-22T06:36:17.417Z,12.86
2023-04-22T06:38:52.078Z,12.92
2023-04-22T06:41:36.205Z,13.77
2023-04-22T06:44:13.793Z,13.93
2023-04-22T06:47:02.217Z,13.73
2023-04-22T06:49:45.101Z,13.60
2023-04-22T06:52:37.076Z,14.23
2023-04-22T06:55:08.062Z,14.87
2023-04-22T06:57:36.998Z,14.63
2023-04-22T07:00:08.554Z,14.39
2023-04-22T07:02:39.975Z,14.33
2023-04-22T07:05:09.767Z,15.25
2023-04-22T07:07:39.225Z,15.31
2023-04-22T07:10:11.764Z,14.79
2023-04-22T07:12:50.768Z,14.46
2023-04-22T07:15:20.894Z,14.62
2023-04-22T07:17:49.709Z,14.02
2023-04-22T07:20:18.562Z,13.39
2023-04-22T07:22:47.419Z,13.16
2023-04-22T07:25:17.716Z,13.46
2023-04-22T07:27:46.705Z,13.74
2023-04-22T07:30:15.996Z,14.60
2023-04-22T07:32:46.380Z,14.73
2023-04-22T07:35:18.181Z,14.59
2023-04-22T07:37:47.083Z,13.95
2023-04-22T07:40:17.275Z,13.75
2023-04-22T07:42:46.142Z,13.25
2023-04-22T07:45:15.020Z,13.33
2023-04-22T07:47:43.857Z,13.12
2023-04-22T07:50:12.856Z,13.05
2023-04-22T07:52:41.711Z,13.67
2023-04-22T07:55:10.853Z,14.69
2023-04-22T07:57:41.077Z,15.65
2023-04-22T08:00:11.422Z,15.02
2023-04-22T08:02:44.258Z,14.70
2023-04-22T08:05:13.397Z,14.48
2023-04-22T08:07:42.221Z,14.94
2023-04-22T08:10:11.774Z,14.40
2023-04-22T08:12:41.958Z,14.10
2023-04-22T08:15:11.459Z,13.71
2023-04-22T08:17:40.504Z,13.98
2023-04-22T08:20:10.526Z,13.67
2023-04-22T08:22:39.905Z,13.67
2023-04-22T08:25:09.825Z,14.61
2023-04-22T08:27:38.969Z,14.39
2023-04-22T08:30:10.540Z,14.56
2023-04-22T08:32:39.379Z,14.62
2023-04-22T08:35:08.803Z,15.16
2023-04-22T08:37:37.753Z,15.30
2023-04-22T08:40:08.227Z,14.92
2023-04-22T08:42:38.006Z,15.40
2023-04-22T08:45:09.938Z,16.00
2023-04-22T08:47:41.390Z,16.28
2023-04-22T08:50:11.002Z,15.51
2023-04-22T08:52:39.856Z,15.94
2023-04-22T08:55:09.755Z,15.90
2023-04-22T08:57:40.152Z,15.51
2023-04-22T09:00:10.229Z,15.40
2023-04-22T09:02:44.938Z,15.07
2023-04-22T09:05:16.178Z,14.87
2023-04-22T09:07:45.961Z,14.66
2023-04-22T09:10:15.179Z,14.74
2023-04-22T09:12:44.071Z,15.04
2023-04-22T09:15:13.753Z,15.74
2023-04-22T09:17:44.519Z,17.16
2023-04-22T09:20:15.406Z,17.25
2023-04-22T09:22:46.037Z,15.61
2023-04-22T09:25:18.877Z,14.18
2023-04-22T09:27:51.738Z,14.33
2023-04-22T09:30:25.385Z,14.10
2023-04-22T09:32:57.224Z,13.70
2023-04-22T09:35:28.367Z,13.70
2023-04-22T09:37:57.715Z,14.02
2023-04-22T09:40:27.408Z,14.30
2023-04-22T09:42:58.487Z,14.29
2023-04-22T09:45:31.916Z,14.71
2023-04-22T09:48:05.397Z,15.08
2023-04-22T09:50:34.281Z,15.23
2023-04-22T09:53:05.692Z,15.43
2023-04-22T09:55:36.665Z,15.34
2023-04-22T09:58:08.878Z,14.87
2023-04-22T10:00:41.531Z,14.92
2023-04-22T10:03:11.881Z,15.57
2023-04-22T10:05:41.437Z,16.82
2023-04-22T10:08:11.570Z,17.99
2023-04-22T10:10:41.134Z,18.92
2023-04-22T10:13:10.321Z,19.09
2023-04-22T10:15:42.552Z,19.00
2023-04-22T10:18:15.940Z,18.80
2023-04-22T10:20:46.018Z,18.57
2023-04-22T10:23:17.119Z,19.75
2023-04-22T10:25:49.184Z,20.84
2023-04-22T10:28:18.837Z,21.24
2023-04-22T10:30:48.015Z,19.85
2023-04-22T10:33:40.345Z,19.39
2023-04-22T10:36:11.296Z,19.93
2023-04-22T10:38:41.956Z,20.30
2023-04-22T10:41:15.529Z,18.99
2023-04-22T10:43:46.410Z,17.87
2023-04-22T10:47:01.026Z,17.44
2023-04-22T10:49:35.015Z,17.45
2023-04-22T10:52:05.200Z,16.76
2023-04-22T10:55:02.196Z,16.72
2023-04-22T10:57:37.718Z,16.20
2023-04-22T11:00:21.700Z,17.54
2023-04-22T11:02:54.431Z,17.12
2023-04-22T11:05:27.491Z,17.25
2023-04-22T11:08:03.239Z,17.01
2023-04-22T11:10:44.323Z,16.47
2023-04-22T11:13:16.836Z,16.20
2023-04-22T11:15:47.566Z,16.15
2023-04-22T11:18:19.902Z,16.17
2023-04-22T11:20:51.118Z,16.19
2023-04-22T11:23:26.469Z,16.46
2023-04-22T11:25:56.965Z,16.67
2023-04-22T11:28:26.213Z,16.78
2023-04-22T11:31:02.213Z,16.91
2023-04-22T11:33:31.124Z,17.29
2023-04-22T11:36:02.064Z,18.02
2023-04-22T11:38:31.271Z,17.54
2023-04-22T11:41:00.104Z,16.59
2023-04-22T11:43:29.628Z,16.68
2023-04-22T11:45:58.725Z,16.85
2023-04-22T11:48:27.746Z,17.72
2023-04-22T11:51:11.236Z,18.25
2023-04-22T11:53:41.376Z,18.05
2023-04-22T11:56:10.266Z,18.26
2023-04-22T11:58:41.928Z,17.98
2023-04-22T12:01:14.687Z,17.85
2023-04-22T12:03:43.695Z,17.77
2023-04-22T12:06:13.993Z,18.28
2023-04-22T12:08:44.958Z,19.36
2023-04-22T12:11:14.231Z,20.10
2023-04-22T12:13:45.676Z,20.82
2023-04-22T12:16:16.790Z,21.08
2023-04-22T12:18:51.301Z,21.17
2023-04-22T12:21:23.766Z,20.89
2023-04-22T12:23:54.654Z,20.43
2023-04-22T12:26:26.898Z,18.76
2023-04-22T12:28:58.048Z,19.76
2023-04-22T12:31:27.969Z,20.30
2023-04-22T12:33:57.358Z,20.40
2023-04-22T12:36:27.649Z,20.20
2023-04-22T12:38:56.517Z,20.09
2023-04-22T12:41:25.467Z,19.65
2023-04-22T12:43:55.286Z,19.54
2023-04-22T12:46:24.255Z,19.53
2023-04-22T12:48:53.091Z,18.84
2023-04-22T12:51:22.507Z,18.56
2023-04-22T12:53:52.647Z,19.19
2023-04-22T12:56:21.543Z,20.30
2023-04-22T12:58:50.336Z,20.27
2023-04-22T13:01:19.262Z,20.16
2023-04-22T13:03:53.237Z,20.18
2023-04-22T13:06:22.316Z,20.59
2023-04-22T13:08:53.209Z,20.22
2023-04-22T13:11:22.641Z,19.94
2023-04-22T13:13:51.532Z,19.67
2023-04-22T13:16:21.246Z,19.33
2023-04-22T13:18:50.104Z,19.33
2023-04-22T13:21:18.899Z,19.44
2023-04-22T13:23:47.723Z,19.30
2023-04-22T13:26:17.950Z,19.30
2023-04-22T13:28:46.779Z,19.37
2023-04-22T13:31:15.706Z,19.89
2023-04-22T13:33:45.193Z,19.56
2023-04-22T13:36:14.085Z,18.99
2023-04-22T13:38:42.969Z,19.20
2023-04-22T13:41:11.841Z,18.88
2023-04-22T13:43:42.184Z,18.59
2023-04-22T13:46:11.100Z,17.76
2023-04-22T13:48:39.931Z,18.01
2023-04-22T13:51:08.834Z,19.14
2023-04-22T13:53:37.653Z,18.42
2023-04-22T13:56:06.930Z,17.62
2023-04-22T13:58:35.766Z,16.92
2023-04-22T14:01:06.274Z,17.12
2023-04-22T14:03:35.584Z,16.81
2023-04-22T14:06:04.957Z,16.67
2023-04-22T14:08:33.765Z,16.36
2023-04-22T14:11:03.521Z,16.04
2023-04-22T14:13:32.451Z,15.91
2023-04-22T14:16:02.612Z,15.62
2023-04-22T14:18:36.219Z,16.02
2023-04-22T14:21:07.425Z,15.93
2023-04-22T14:23:36.654Z,15.38
2023-04-22T14:26:06.022Z,14.94
2023-04-22T14:28:35.608Z,14.62
2023-04-22T14:31:04.610Z,14.16
2023-04-22T14:33:35.420Z,13.86
2023-04-22T14:36:04.414Z,13.72
2023-04-22T14:38:33.227Z,13.12
2023-04-22T14:41:02.288Z,13.26
2023-04-22T14:43:33.282Z,13.06
2023-04-22T14:46:02.250Z,12.66
2023-04-22T14:48:32.412Z,12.57
2023-04-22T14:51:04.049Z,12.20
2023-04-22T14:53:33.142Z,12.29
2023-04-22T14:56:02.019Z,12.19
2023-04-22T14:58:31.841Z,12.10
2023-04-22T15:01:01.981Z,12.22
2023-04-22T15:03:31.072Z,12.35
2023-04-22T15:06:00.589Z,12.62
2023-04-22T15:08:31.037Z,12.58
2023-04-22T15:11:00.733Z,12.64
2023-04-22T15:13:29.636Z,13.24
2023-04-22T15:15:59.193Z,13.30
2023-04-22T15:18:28.073Z,13.37
2023-04-22T15:20:56.901Z,13.22
2023-04-22T15:23:25.731Z,13.39
2023-04-22T15:25:55.933Z,13.55
2023-04-22T15:28:25.086Z,13.49
2023-04-22T15:30:53.944Z,13.42
2023-04-22T15:33:22.772Z,13.44
2023-04-22T15:35:51.590Z,12.98
2023-04-22T15:38:20.658Z,13.08
2023-04-22T15:40:49.462Z,13.16
2023-04-22T15:43:19.676Z,12.64
2023-04-22T15:45:48.578Z,12.54
2023-04-22T15:48:17.356Z,12.56
2023-04-22T15:50:46.198Z,12.75
2023-04-22T15:53:15.134Z,12.73
2023-04-22T15:55:43.986Z,12.64
2023-04-22T15:58:12.976Z,12.51
2023-04-22T16:00:43.283Z,12.28
2023-04-22T16:03:12.628Z,12.32
2023-04-22T16:05:41.538Z,12.44
2023-04-22T16:08:10.886Z,12.52
2023-04-22T16:10:39.683Z,12.62
2023-04-22T16:13:08.552Z,12.50
2023-04-22T16:15:37.500Z,12.47
2023-04-22T16:18:08.125Z,12.58
2023-04-22T16:20:37.002Z,12.55
2023-04-22T16:23:05.957Z,12.70
2023-04-22T16:25:34.861Z,12.74
2023-04-22T16:28:03.655Z,12.73
2023-04-22T16:30:32.536Z,12.68
2023-04-22T16:33:02.057Z,12.69
2023-04-22T16:35:32.964Z,12.50
2023-04-22T16:38:02.183Z,12.49
2023-04-22T16:40:31.151Z,12.68
2023-04-22T16:43:05.080Z,12.79
2023-04-22T16:45:34.010Z,12.71
2023-04-22T16:48:03.326Z,12.73
2023-04-22T16:50:33.578Z,12.86
2023-04-22T16:53:03.302Z,12.73
2023-04-22T16:55:32.186Z,12.66
2023-04-22T16:58:02.786Z,12.59
2023-04-22T17:00:31.765Z,12.59
2023-04-22T17:03:00.913Z,12.46
2023-04-22T17:05:29.858Z,12.32
2023-04-22T17:08:00.179Z,12.10
2023-04-22T17:10:29.888Z,11.82
2023-04-22T17:12:58.751Z,11.63
2023-04-22T17:15:27.618Z,11.57
2023-04-22T17:17:56.480Z,11.59
2023-04-22T17:20:25.386Z,11.60
2023-04-22T17:22:54.271Z,11.58
2023-04-22T17:25:24.542Z,11.40
2023-04-22T17:27:53.415Z,11.23
2023-04-22T17:30:22.304Z,11.15
2023-04-22T17:32:51.265Z,11.28
2023-04-22T17:35:20.304Z,11.24
2023-04-22T17:37:49.101Z,11.18
2023-04-22T17:40:18.166Z,11.11
2023-04-22T17:42:48.512Z,11.07
2023-04-22T17:45:17.363Z,10.95
2023-04-22T17:47:47.634Z,10.96
2023-04-22T17:50:16.557Z,10.93
2023-04-22T17:52:45.444Z,10.91
2023-04-22T17:55:14.265Z,10.90
2023-04-22T17:57:43.102Z,11.00
2023-04-22T18:00:14.815Z,10.86
2023-04-22T18:02:43.875Z,10.80
2023-04-22T18:05:13.034Z,10.83
2023-04-22T18:07:42.254Z,10.82
2023-04-22T18:10:12.480Z,10.84
2023-04-22T18:12:41.865Z,10.88
2023-04-22T18:15:11.007Z,11.25
2023-04-22T18:17:41.302Z,11.26
2023-04-22T18:20:18.048Z,10.99
2023-04-22T18:22:49.154Z,10.60
2023-04-22T18:25:18.008Z,10.43
2023-04-22T18:27:47.718Z,10.55
2023-04-22T18:30:17.079Z,10.75
2023-04-22T18:32:47.405Z,10.79
2023-04-22T18:35:16.997Z,10.85
2023-04-22T18:37:46.247Z,10.66
2023-04-22T18:40:15.307Z,10.66
2023-04-22T18:42:45.089Z,10.56
2023-04-22T18:45:15.602Z,10.59
2023-04-22T18:47:45.833Z,10.58
2023-04-22T18:50:16.391Z,10.48
2023-04-22T18:52:45.874Z,10.18
2023-04-22T18:55:14.794Z,10.35
2023-04-22T18:57:43.807Z,10.40
2023-04-22T19:00:13.764Z,10.39
2023-04-22T19:02:43.947Z,10.23
2023-04-22T19:05:14.670Z,10.09
2023-04-22T19:07:45.308Z,10.10
2023-04-22T19:10:14.463Z,9.97
2023-04-22T19:12:43.365Z,10.12
2023-04-22T19:15:12.999Z,9.84
2023-04-22T19:17:42.731Z,9.74
2023-04-22T19:20:12.302Z,9.70
2023-04-22T19:22:41.249Z,9.44
2023-04-22T19:25:12.118Z,9.56
2023-04-22T19:27:41.013Z,9.64
2023-04-22T19:30:11.537Z,9.66
2023-04-22T19:32:41.251Z,9.95
2023-04-22T19:35:12.550Z,10.37
2023-04-22T19:37:41.526Z,10.28
2023-04-22T19:40:13.174Z,10.38
2023-04-22T19:42:42.729Z,10.09
2023-04-22T19:45:12.127Z,9.91
2023-04-22T19:47:41.352Z,9.66
2023-04-22T19:50:11.354Z,9.54
2023-04-22T19:52:42.068Z,9.52
2023-04-22T19:55:12.912Z,9.61
2023-04-22T19:57:43.375Z,9.68
2023-04-22T20:00:13.312Z,9.77
2023-04-22T20:02:43.490Z,9.81
2023-04-22T20:05:13.336Z,9.50
2023-04-22T20:07:44.694Z,9.26
2023-04-22T20:10:15.620Z,8.96
2023-04-22T20:12:45.863Z,8.87
2023-04-22T20:15:15.218Z,8.93
2023-04-22T20:17:44.850Z,8.98
2023-04-22T20:20:15.622Z,9.01
2023-04-22T20:22:46.486Z,9.08
2023-04-22T20:25:18.153Z,8.70
2023-04-22T20:27:47.374Z,9.39
2023-04-22T20:30:17.016Z,9.39
2023-04-22T20:32:46.024Z,9.54
2023-04-22T20:35:16.615Z,9.66
2023-04-22T20:37:47.197Z,9.47
2023-04-22T20:40:18.843Z,9.17
2023-04-22T20:42:47.880Z,9.10
2023-04-22T20:45:17.867Z,9.03
2023-04-22T20:47:46.965Z,9.23
2023-04-22T20:50:16.035Z,9.41
2023-04-22T20:52:45.358Z,9.47
2023-04-22T20:55:14.314Z,9.26
2023-04-22T20:57:44.979Z,9.20
2023-04-22T21:00:16.118Z,8.86
2023-04-22T21:02:46.048Z,8.47
2023-04-22T21:05:15.039Z,8.30
2023-04-22T21:07:47.823Z,8.23
2023-04-22T21:10:17.356Z,8.27
2023-04-22T21:12:48.252Z,8.33
2023-04-22T21:15:17.947Z,8.39
2023-04-22T21:17:56.588Z,8.25
2023-04-22T21:20:27.142Z,7.89
2023-04-22T21:22:59.711Z,7.94
2023-04-22T21:25:30.705Z,8.02
2023-04-22T21:28:02.119Z,8.10
2023-04-22T21:30:31.469Z,7.92
2023-04-22T21:33:00.335Z,7.74
2023-04-22T21:35:30.121Z,7.62
2023-04-22T21:37:59.017Z,7.58
2023-04-22T21:40:28.094Z,7.40
2023-04-22T21:42:56.877Z,7.52
2023-04-22T21:45:27.275Z,7.47
2023-04-22T21:47:56.122Z,7.55
2023-04-22T21:50:25.458Z,7.27
2023-04-22T21:52:54.581Z,7.38
2023-04-22T21:55:23.621Z,7.47
2023-04-22T21:57:52.487Z,7.45
2023-04-22T22:00:21.327Z,7.29
2023-04-22T22:02:52.555Z,7.19
2023-04-22T22:05:21.889Z,7.26
2023-04-22T22:07:50.738Z,7.30
2023-04-22T22:10:20.733Z,7.18
2023-04-22T22:12:50.038Z,7.26
2023-04-22T22:15:18.955Z,7.39
2023-04-22T22:17:47.890Z,7.30
2023-04-22T22:20:20.600Z,7.36
2023-04-22T22:22:49.790Z,7.38
2023-04-22T22:25:18.661Z,7.47
2023-04-22T22:27:49.393Z,7.44
2023-04-22T22:30:21.138Z,7.35
2023-04-22T22:32:50.112Z,7.29
2023-04-22T22:35:21.023Z,7.27
2023-04-22T22:37:50.368Z,7.28
2023-04-22T22:40:19.232Z,7.27
2023-04-22T22:42:48.052Z,7.08
2023-04-22T22:45:17.089Z,7.05
2023-04-22T22:47:46.128Z,7.22
2023-04-22T22:50:15.008Z,7.06
2023-04-22T22:52:45.285Z,7.02
2023-04-22T22:55:14.149Z,7.01
2023-04-22T22:57:42.940Z,7.10
2023-04-22T23:00:13.790Z,7.22
2023-04-22T23:02:42.814Z,7.17
2023-04-22T23:05:11.659Z,7.10
2023-04-22T23:07:40.458Z,6.94
2023-04-22T23:10:11.269Z,6.80
2023-04-22T23:12:40.105Z,6.81
2023-04-22T23:15:09.838Z,6.79
2023-04-22T23:17:39.091Z,6.55
2023-04-22T23:20:10.979Z,6.46
2023-04-22T23:22:40.671Z,6.54
2023-04-22T23:25:12.792Z,6.44
2023-04-22T23:27:42.577Z,6.53
2023-04-22T23:30:12.390Z,6.57
2023-04-22T23:32:41.844Z,6.72
2023-04-22T23:35:13.833Z,6.86
2023-04-22T23:37:45.487Z,6.88
2023-04-22T23:40:15.724Z,6.76
2023-04-22T23:42:44.560Z,6.71
2023-04-22T23:45:13.447Z,6.67
2023-04-22T23:47:42.437Z,6.70
2023-04-22T23:50:14.100Z,6.60
2023-04-22T23:52:42.975Z,6.53
2023-04-22T23:55:14.010Z,6.63
2023-04-22T23:57:44.816Z,6.27
